createdAt,value
2023-05-05T00:02:28.238Z,4.21
2023-05-05T00:07:32.886Z,4.17
2023-05-05T00:12:36.413Z,4.26
2023-05-05T00:17:39.949Z,4.33
2023-05-05T00:22:44.690Z,4.38
2023-05-05T00:27:48.235Z,4.39
2023-05-05T00:32:52.462Z,4.25
2023-05-05T00:37:57.454Z,4.13
2023-05-05T00:43:00.734Z,4.00
2023-05-05T00:48:04.394Z,3.92
2023-05-05T00:53:09.223Z,3.83
2023-05-05T00:58:13.439Z,3.70
2023-05-05T01:03:17.048Z,3.59
2023-05-05T01:08:34.865Z,3.51
2023-05-05T01:13:49.446Z,3.48
2023-05-05T01:18:59.652Z,3.42
2023-05-05T01:24:38.712Z,3.27
2023-05-05T01:30:07.355Z,3.14
2023-05-05T01:35:23.910Z,3.04
2023-05-05T01:40:31.454Z,2.95
2023-05-05T01:45:39.341Z,2.87
2023-05-05T01:50:46.786Z,2.81
2023-05-05T01:55:51.563Z,2.77
2023-05-05T02:00:58.079Z,2.73
2023-05-05T02:06:04.031Z,2.69
2023-05-05T02:11:10.125Z,2.66
2023-05-05T02:16:15.267Z,2.64
2023-05-05T02:21:20.717Z,2.62
2023-05-05T02:26:26.310Z,2.48
2023-05-05T02:31:31.102Z,2.63
2023-05-05T02:36:39.612Z,2.73
2023-05-05T02:41:45.211Z,2.95
2023-05-05T02:46:49.184Z,3.19
2023-05-05T02:51:54.095Z,3.45
2023-05-05T02:56:59.114Z,3.71
2023-05-05T03:02:12.251Z,4.03
2023-05-05T03:07:26.359Z,4.37
2023-05-05T03:12:37.490Z,4.73
2023-05-05T03:17:42.335Z,4.96
2023-05-05T03:22:47.627Z,5.09
2023-05-05T03:27:51.134Z,5.22
2023-05-05T03:32:54.370Z,5.26
2023-05-05T03:37:58.958Z,5.18
2023-05-05T03:43:02.218Z,5.07
2023-05-05T03:48:05.541Z,5.01
2023-05-05T03:53:10.366Z,5.13
2023-05-05T03:58:13.639Z,5.40
2023-05-05T04:03:17.506Z,5.77
2023-05-05T04:08:22.382Z,6.27
2023-05-05T04:13:25.867Z,6.97
2023-05-05T04:18:29.174Z,7.66
2023-05-05T04:23:33.896Z,7.79
2023-05-05T04:28:38.690Z,7.71
2023-05-05T04:33:41.842Z,7.57
2023-05-05T04:38:46.507Z,7.58
2023-05-05T04:43:49.874Z,7.67
2023-05-05T04:48:52.966Z,7.88
2023-05-05T04:53:57.795Z,8.32
2023-05-05T04:59:01.045Z,8.86
2023-05-05T05:04:05.024Z,9.37
2023-05-05T05:09:09.741Z,9.39
2023-05-05T05:14:12.873Z,9.45
2023-05-05T05:19:16.215Z,9.45
2023-05-05T05:24:20.993Z,9.68
2023-05-05T05:29:24.216Z,9.97
2023-05-05T05:34:27.601Z,10.14
2023-05-05T05:39:32.229Z,10.00
2023-05-05T05:44:35.428Z,9.84
2023-05-05T05:49:38.590Z,9.84
2023-05-05T05:54:43.271Z,9.69
2023-05-05T05:59:46.505Z,9.43
2023-05-05T06:04:49.695Z,9.18
2023-05-05T06:09:54.386Z,9.13
2023-05-05T06:14:57.698Z,9.24
2023-05-05T06:20:00.807Z,9.63
2023-05-05T06:25:06.140Z,10.33
2023-05-05T06:30:10.815Z,10.84
2023-05-05T06:35:14.093Z,11.29
2023-05-05T06:40:18.915Z,11.70
2023-05-05T06:45:22.081Z,12.27
2023-05-05T06:50:25.325Z,12.57
2023-05-05T06:55:29.978Z,12.66
2023-05-05T07:00:33.476Z,12.57
2023-05-05T07:05:36.890Z,12.38
2023-05-05T07:10:41.922Z,12.46
2023-05-05T07:15:46.778Z,13.14
2023-05-05T07:20:50.041Z,14.20
2023-05-05T07:25:56.186Z,14.44
2023-05-05T07:30:59.434Z,14.60
2023-05-05T07:36:02.834Z,14.76
2023-05-05T07:41:07.479Z,14.50
2023-05-05T07:46:10.682Z,14.83
2023-05-05T07:51:13.969Z,14.65
2023-05-05T07:56:19.857Z,15.52
2023-05-05T08:01:24.375Z,16.59
2023-05-05T08:06:27.937Z,18.14
2023-05-05T08:11:32.645Z,16.95
2023-05-05T08:16:36.211Z,15.74
2023-05-05T08:21:39.974Z,14.91
2023-05-05T08:26:44.598Z,16.73
2023-05-05T08:31:47.780Z,20.86
2023-05-05T08:36:51.099Z,23.19
2023-05-05T08:41:55.935Z,25.92
2023-05-05T08:47:01.868Z,22.55
2023-05-05T08:52:09.629Z,19.62
2023-05-05T08:57:20.326Z,17.36
2023-05-05T09:02:28.650Z,15.48
2023-05-05T09:07:32.821Z,14.43
2023-05-05T09:12:40.459Z,13.79
2023-05-05T09:17:44.376Z,13.66
2023-05-05T09:22:49.293Z,13.55
2023-05-05T09:27:55.049Z,14.86
2023-05-05T09:32:58.541Z,16.42
2023-05-05T09:38:12.722Z,17.82
2023-05-05T09:43:19.194Z,22.47
2023-05-05T09:48:26.962Z,23.72
2023-05-05T09:53:40.826Z,19.88
2023-05-05T09:58:45.767Z,16.81
2023-05-05T10:03:52.775Z,16.03
2023-05-05T10:09:02.712Z,16.54
2023-05-05T10:14:08.873Z,17.51
2023-05-05T10:19:14.424Z,22.37
2023-05-05T10:24:23.571Z,25.90
2023-05-05T10:29:38.203Z,28.27
2023-05-05T10:34:52.162Z,28.64
2023-05-05T10:39:57.589Z,23.81
2023-05-05T10:45:03.277Z,19.84
2023-05-05T10:50:14.731Z,19.63
2023-05-05T10:55:22.191Z,22.13
2023-05-05T11:00:52.831Z,24.60
2023-05-05T11:06:13.744Z,22.11
2023-05-05T11:11:17.097Z,21.95
2023-05-05T11:16:47.911Z,26.93
2023-05-05T11:22:03.698Z,27.83
2023-05-05T11:27:07.575Z,22.61
2023-05-05T11:32:15.949Z,19.38
2023-05-05T11:37:19.382Z,22.42
2023-05-05T11:42:26.871Z,27.21
2023-05-05T11:47:34.889Z,30.14
2023-05-05T11:52:38.226Z,32.13
2023-05-05T11:57:41.630Z,29.93
2023-05-05T12:02:46.487Z,29.09
2023-05-05T12:07:50.001Z,26.11
2023-05-05T12:12:55.972Z,27.86
2023-05-05T12:18:02.781Z,27.48
2023-05-05T12:23:08.229Z,22.39
2023-05-05T12:28:11.480Z,20.94
2023-05-05T12:33:16.146Z,19.04
2023-05-05T12:38:19.357Z,17.10
2023-05-05T12:43:27.008Z,19.21
2023-05-05T12:48:31.970Z,20.05
2023-05-05T12:53:35.394Z,23.09
2023-05-05T12:58:56.632Z,25.78
2023-05-05T13:04:12.916Z,21.99
2023-05-05T13:09:26.564Z,18.99
2023-05-05T13:14:30.733Z,22.91
2023-05-05T13:19:41.894Z,26.47
2023-05-05T13:24:51.502Z,28.74
2023-05-05T13:29:55.996Z,28.77
2023-05-05T13:35:00.622Z,24.87
2023-05-05T13:40:04.320Z,25.87
2023-05-05T13:45:08.732Z,24.33
2023-05-05T13:50:13.629Z,24.75
2023-05-05T13:55:17.160Z,24.20
2023-05-05T14:00:21.715Z,22.95
2023-05-05T14:05:26.383Z,23.69
2023-05-05T14:10:31.181Z,23.12
2023-05-05T14:15:34.823Z,23.09
2023-05-05T14:20:39.406Z,24.39
2023-05-05T14:25:42.979Z,23.98
2023-05-05T14:30:46.599Z,22.98
2023-05-05T14:35:51.369Z,23.28
2023-05-05T14:40:55.284Z,23.45
2023-05-05T14:46:00.752Z,23.32
2023-05-05T14:51:06.258Z,22.25
2023-05-05T14:56:09.688Z,21.56
2023-05-05T15:01:13.170Z,19.81
2023-05-05T15:06:17.867Z,17.33
2023-05-05T15:11:22.013Z,18.03
2023-05-05T15:16:25.411Z,18.12
2023-05-05T15:21:30.357Z,18.03
2023-05-05T15:26:33.664Z,17.81
2023-05-05T15:31:37.147Z,17.88
2023-05-05T15:36:42.021Z,15.68
2023-05-05T15:41:45.332Z,13.35
2023-05-05T15:46:50.512Z,11.50
2023-05-05T15:51:55.895Z,10.36
2023-05-05T15:56:59.183Z,9.58
2023-05-05T16:02:02.453Z,9.43
2023-05-05T16:07:07.130Z,10.11
2023-05-05T16:12:10.549Z,10.64
2023-05-05T16:17:14.122Z,9.45
2023-05-05T16:22:18.908Z,8.21
2023-05-05T16:27:22.563Z,7.31
2023-05-05T16:32:26.434Z,6.63
2023-05-05T16:37:31.792Z,6.09
2023-05-05T16:42:35.122Z,5.59
2023-05-05T16:47:38.489Z,5.20
2023-05-05T16:52:43.347Z,4.81
2023-05-05T16:57:47.298Z,4.43
2023-05-05T17:02:50.714Z,4.06
2023-05-05T17:07:55.537Z,3.75
2023-05-05T17:12:58.761Z,3.42
2023-05-05T17:18:02.264Z,3.10
2023-05-05T17:23:08.761Z,2.81
2023-05-05T17:28:12.276Z,2.52
2023-05-05T17:33:18.485Z,2.22
2023-05-05T17:38:23.286Z,1.93
2023-05-05T17:43:26.714Z,1.69
2023-05-05T17:48:30.308Z,1.44
2023-05-05T17:53:35.152Z,1.25
2023-05-05T17:58:39.338Z,1.04
2023-05-05T18:03:42.949Z,0.84
2023-05-05T18:08:47.836Z,0.65
2023-05-05T18:13:51.238Z,0.49
2023-05-05T18:18:54.762Z,0.35
2023-05-05T18:24:07.671Z,0.20
2023-05-05T18:29:16.271Z,0.03
2023-05-05T18:34:20.686Z,-0.11
2023-05-05T18:39:25.841Z,-0.25
2023-05-05T18:44:29.533Z,-0.39
2023-05-05T18:49:32.960Z,-0.49
2023-05-05T18:54:38.113Z,-0.59
2023-05-05T18:59:41.434Z,-0.70
2023-05-05T19:04:45.019Z,-0.82
2023-05-05T19:09:49.776Z,-0.91
2023-05-05T19:14:53.162Z,-1.09
2023-05-05T19:19:56.461Z,-1.14
2023-05-05T19:25:01.275Z,-1.26
2023-05-05T19:30:07.924Z,-1.41
2023-05-05T19:35:11.896Z,-1.51
2023-05-05T19:40:18.731Z,-1.60
2023-05-05T19:45:23.882Z,-1.68
2023-05-05T19:50:27.930Z,-1.73
2023-05-05T19:55:32.276Z,-1.80
2023-05-05T20:00:37.523Z,-1.87
2023-05-05T20:05:41.206Z,-1.98
2023-05-05T20:10:44.645Z,-2.10
2023-05-05T20:15:49.831Z,-2.19
2023-05-05T20:20:53.304Z,-2.23
2023-05-05T20:25:57.580Z,-2.29
2023-05-05T20:31:02.996Z,-2.36
2023-05-05T20:36:07.551Z,-2.44
2023-05-05T20:41:10.893Z,-2.44
2023-05-05T20:46:16.270Z,-2.47
2023-05-05T20:51:20.487Z,-2.51
2023-05-05T20:56:24.232Z,-2.57
2023-05-05T21:01:29.365Z,-2.62
2023-05-05T21:06:33.604Z,-2.70
2023-05-05T21:11:37.006Z,-2.77
2023-05-05T21:16:42.000Z,-2.80
2023-05-05T21:21:45.230Z,-2.85
2023-05-05T21:26:48.754Z,-2.90
2023-05-05T21:31:53.634Z,-2.93
2023-05-05T21:36:57.238Z,-2.97
2023-05-05T21:42:01.881Z,-2.99
2023-05-05T21:47:06.848Z,-3.00
2023-05-05T21:52:10.628Z,-3.10
2023-05-05T21:57:13.854Z,-3.07
2023-05-05T22:02:18.554Z,-3.06
2023-05-05T22:07:21.903Z,-3.08
2023-05-05T22:12:25.299Z,-3.08
2023-05-05T22:17:30.049Z,-3.11
2023-05-05T22:22:33.722Z,-3.12
2023-05-05T22:27:37.148Z,-3.22
2023-05-05T22:32:43.630Z,-3.42
2023-05-05T22:37:47.060Z,-3.43
2023-05-05T22:42:50.522Z,-3.50
2023-05-05T22:47:55.712Z,-3.55
2023-05-05T22:52:59.275Z,-3.70
2023-05-05T22:58:02.781Z,-3.68
2023-05-05T23:03:07.789Z,-3.75
2023-05-05T23:08:11.198Z,-3.81
2023-05-05T23:13:14.878Z,-3.84
2023-05-05T23:18:19.612Z,-3.89
2023-05-05T23:23:23.215Z,-3.91
2023-05-05T23:28:26.547Z,-3.96
2023-05-05T23:33:31.464Z,-4.00
2023-05-05T23:38:34.804Z,-4.04
2023-05-05T23:43:38.481Z,-4.09
2023-05-05T23:48:43.223Z,-4.13
2023-05-05T23:53:46.693Z,-4.11
2023-05-05T23:58:50.062Z,-4.04
